createdAt,value
2023-03-28T00:02:51.030Z,3.30
2023-03-28T00:07:54.502Z,3.22
2023-03-28T00:12:57.775Z,3.13
2023-03-28T00:18:01.464Z,3.12
2023-03-28T00:23:05.525Z,3.08
2023-03-28T00:28:09.655Z,3.03
2023-03-28T00:33:12.892Z,2.97
2023-03-28T00:38:16.023Z,2.91
2023-03-28T00:43:49.411Z,2.90
2023-03-28T00:48:56.766Z,2.89
2023-03-28T00:54:08.075Z,2.91
2023-03-28T00:59:19.426Z,2.95
2023-03-28T01:04:27.514Z,2.91
2023-03-28T01:09:31.838Z,2.84
2023-03-28T01:14:39.385Z,2.85
2023-03-28T01:20:28.928Z,2.85
2023-03-28T01:26:18.481Z,2.84
2023-03-28T01:31:31.099Z,2.80
2023-03-28T01:37:38.951Z,2.74
2023-03-28T01:42:53.496Z,2.66
2023-03-28T01:48:29.810Z,2.64
2023-03-28T01:53:40.144Z,2.63
2023-03-28T01:58:48.802Z,2.51
2023-03-28T02:04:20.733Z,2.43
2023-03-28T02:09:51.061Z,2.30
2023-03-28T02:15:14.065Z,2.27
2023-03-28T02:20:58.360Z,2.28
2023-03-28T02:26:12.644Z,2.23
2023-03-28T02:31:39.019Z,2.20
2023-03-28T02:37:20.034Z,2.17
2023-03-28T02:42:28.900Z,2.11
2023-03-28T02:48:03.788Z,2.07
2023-03-28T02:53:27.348Z,2.05
2023-03-28T02:59:06.886Z,2.04
2023-03-28T03:04:13.720Z,2.10
2023-03-28T03:09:17.928Z,2.07
2023-03-28T03:14:21.543Z,2.07
2023-03-28T03:19:26.539Z,2.11
2023-03-28T03:24:29.942Z,2.08
2023-03-28T03:29:38.432Z,2.09
2023-03-28T03:34:43.788Z,2.05
2023-03-28T03:39:47.382Z,2.09
2023-03-28T03:44:55.334Z,2.10
2023-03-28T03:50:00.256Z,2.12
2023-03-28T03:55:04.664Z,2.20
2023-03-28T04:00:12.334Z,2.20
2023-03-28T04:05:24.805Z,2.26
2023-03-28T04:10:39.288Z,2.27
2023-03-28T04:15:42.832Z,2.25
2023-03-28T04:21:02.020Z,2.26
2023-03-28T04:26:26.092Z,2.35
2023-03-28T04:31:41.778Z,2.78
2023-03-28T04:37:28.025Z,2.74
2023-03-28T04:42:32.853Z,2.72
2023-03-28T04:47:46.886Z,2.73
2023-03-28T04:52:54.992Z,2.78
2023-03-28T04:57:59.028Z,2.86
2023-03-28T05:03:06.829Z,2.92
2023-03-28T05:08:18.320Z,2.90
2023-03-28T05:13:22.198Z,2.97
2023-03-28T05:18:36.801Z,2.92
2023-03-28T05:23:40.746Z,2.96
2023-03-28T05:28:52.803Z,2.98
2023-03-28T05:33:56.555Z,3.04
2023-03-28T05:39:13.481Z,3.12
2023-03-28T05:44:18.773Z,3.21
2023-03-28T05:49:42.196Z,3.32
2023-03-28T05:54:51.724Z,3.35
2023-03-28T05:59:57.496Z,3.33
2023-03-28T06:05:00.993Z,3.30
2023-03-28T06:10:07.536Z,3.14
2023-03-28T06:15:11.855Z,3.15
2023-03-28T06:20:16.253Z,3.23
2023-03-28T06:25:21.973Z,3.25
2023-03-28T06:30:26.222Z,3.21
2023-03-28T06:35:30.074Z,3.37
2023-03-28T06:40:33.895Z,3.47
2023-03-28T06:45:37.204Z,3.54
2023-03-28T06:50:52.426Z,3.57
2023-03-28T06:55:58.244Z,3.76
2023-03-28T07:01:02.619Z,3.93
2023-03-28T07:06:28.375Z,4.13
2023-03-28T07:11:31.906Z,4.23
2023-03-28T07:16:36.627Z,4.34
2023-03-28T07:21:40.093Z,4.31
2023-03-28T07:26:44.785Z,4.22
2023-03-28T07:31:48.262Z,4.16
2023-03-28T07:36:52.438Z,4.10
2023-03-28T07:42:14.946Z,4.18
2023-03-28T07:47:20.546Z,4.16
2023-03-28T07:52:24.125Z,4.18
2023-03-28T07:57:28.024Z,4.10
2023-03-28T08:02:35.474Z,4.04
2023-03-28T08:07:42.471Z,4.07
2023-03-28T08:12:46.309Z,4.17
2023-03-28T08:17:49.751Z,4.15
2023-03-28T08:22:54.109Z,3.90
2023-03-28T08:28:18.242Z,3.42
2023-03-28T08:33:21.756Z,3.25
2023-03-28T08:38:25.254Z,3.17
2023-03-28T08:43:31.563Z,3.25
2023-03-28T08:48:43.693Z,3.41
2023-03-28T08:54:15.678Z,3.53
2023-03-28T08:59:57.110Z,3.66
2023-03-28T09:05:17.857Z,3.67
2023-03-28T09:10:46.169Z,3.78
2023-03-28T09:16:25.988Z,3.85
2023-03-28T09:22:12.393Z,3.79
2023-03-28T09:27:31.843Z,3.83
2023-03-28T09:32:39.785Z,3.87
2023-03-28T09:37:54.721Z,3.67
2023-03-28T09:43:01.149Z,3.51
2023-03-28T09:48:26.206Z,3.40
2023-03-28T09:53:33.390Z,3.48
2023-03-28T09:58:57.781Z,3.56
2023-03-28T10:04:29.550Z,3.74
2023-03-28T10:09:57.200Z,3.88
2023-03-28T10:15:01.304Z,4.07
2023-03-28T10:20:24.542Z,4.20
2023-03-28T10:25:43.337Z,4.14
2023-03-28T10:31:00.056Z,4.23
2023-03-28T10:36:12.035Z,4.38
2023-03-28T10:41:29.119Z,4.47
2023-03-28T10:46:54.346Z,4.47
2023-03-28T10:52:37.070Z,4.43
2023-03-28T10:57:54.183Z,4.44
2023-03-28T11:03:20.714Z,4.32
2023-03-28T11:08:33.758Z,4.45
2023-03-28T11:14:20.114Z,4.83
2023-03-28T11:19:53.905Z,5.26
2023-03-28T11:25:37.072Z,5.35
2023-03-28T11:31:20.885Z,5.11
2023-03-28T11:36:55.737Z,5.08
2023-03-28T11:42:04.923Z,5.09
2023-03-28T11:47:41.504Z,5.29
2023-03-28T11:53:34.967Z,5.66
2023-03-28T11:58:46.684Z,6.20
2023-03-28T12:03:59.221Z,6.48
2023-03-28T12:09:18.130Z,6.80
2023-03-28T12:14:27.678Z,7.31
2023-03-28T12:19:39.134Z,7.63
2023-03-28T12:24:54.047Z,8.02
2023-03-28T12:30:26.154Z,8.27
2023-03-28T12:35:39.965Z,8.02
2023-03-28T12:40:56.330Z,7.61
2023-03-28T12:46:05.688Z,7.41
2023-03-28T12:51:16.978Z,7.75
2023-03-28T12:56:22.157Z,7.68
2023-03-28T13:01:49.322Z,7.33
2023-03-28T13:07:37.265Z,6.88
2023-03-28T13:13:13.117Z,6.26
2023-03-28T13:18:22.260Z,5.58
2023-03-28T13:23:31.498Z,5.52
2023-03-28T13:28:51.788Z,5.92
2023-03-28T13:34:02.005Z,6.54
2023-03-28T13:39:09.570Z,7.09
2023-03-28T13:44:29.904Z,7.33
2023-03-28T13:49:52.622Z,7.02
2023-03-28T13:55:23.660Z,6.62
2023-03-28T14:00:29.058Z,6.14
2023-03-28T14:05:34.192Z,5.62
2023-03-28T14:10:40.932Z,5.02
2023-03-28T14:15:55.588Z,4.30
2023-03-28T14:21:00.613Z,3.79
2023-03-28T14:26:15.930Z,3.80
2023-03-28T14:31:38.719Z,3.79
2023-03-28T14:37:07.457Z,3.89
2023-03-28T14:42:17.848Z,3.95
2023-03-28T14:47:28.520Z,4.02
2023-03-28T14:52:41.196Z,4.16
2023-03-28T14:57:48.142Z,4.24
2023-03-28T15:02:54.935Z,4.47
2023-03-28T15:08:03.346Z,4.61
2023-03-28T15:13:43.639Z,4.80
2023-03-28T15:18:59.201Z,4.93
2023-03-28T15:24:04.411Z,4.89
2023-03-28T15:29:09.313Z,4.79
2023-03-28T15:34:20.725Z,4.54
2023-03-28T15:39:35.490Z,4.19
2023-03-28T15:44:41.557Z,3.97
2023-03-28T15:49:45.650Z,3.78
2023-03-28T15:54:52.647Z,3.78
2023-03-28T15:59:58.522Z,3.78
2023-03-28T16:05:10.707Z,3.90
2023-03-28T16:10:17.802Z,3.90
2023-03-28T16:15:48.061Z,3.86
2023-03-28T16:20:59.832Z,3.91
2023-03-28T16:26:04.616Z,3.85
2023-03-28T16:31:13.085Z,3.61
2023-03-28T16:36:16.474Z,3.25
2023-03-28T16:41:20.434Z,3.15
2023-03-28T16:46:23.865Z,3.21
2023-03-28T16:51:39.911Z,3.27
2023-03-28T16:56:43.941Z,3.30
2023-03-28T17:01:47.896Z,3.29
2023-03-28T17:06:53.049Z,3.40
2023-03-28T17:11:56.884Z,3.64
2023-03-28T17:17:00.373Z,3.76
2023-03-28T17:22:03.990Z,3.62
2023-03-28T17:27:07.423Z,3.38
2023-03-28T17:32:10.785Z,3.22
2023-03-28T17:37:14.370Z,3.16
2023-03-28T17:42:17.760Z,3.14
2023-03-28T17:47:21.167Z,3.20
2023-03-28T17:52:24.835Z,3.26
2023-03-28T17:57:28.366Z,3.16
2023-03-28T18:02:32.104Z,3.11
2023-03-28T18:07:43.521Z,3.04
2023-03-28T18:12:47.794Z,3.04
2023-03-28T18:17:51.460Z,3.01
2023-03-28T18:22:55.607Z,2.91
2023-03-28T18:27:58.869Z,2.95
2023-03-28T18:33:04.056Z,2.86
2023-03-28T18:38:07.418Z,2.88
2023-03-28T18:43:11.143Z,2.95
2023-03-28T18:48:18.697Z,3.03
2023-03-28T18:53:22.778Z,2.95
2023-03-28T18:58:29.123Z,2.87
2023-03-28T19:03:45.123Z,2.69
2023-03-28T19:08:48.817Z,2.65
2023-03-28T19:13:56.744Z,2.76
2023-03-28T19:19:07.511Z,2.88
2023-03-28T19:24:10.871Z,2.90
2023-03-28T19:29:27.599Z,2.76
2023-03-28T19:34:31.519Z,2.83
2023-03-28T19:39:35.295Z,2.85
2023-03-28T19:44:39.616Z,2.85
2023-03-28T19:49:43.247Z,2.87
2023-03-28T19:54:46.562Z,2.88
2023-03-28T19:59:49.953Z,2.93
2023-03-28T20:04:53.672Z,2.97
2023-03-28T20:09:57.141Z,3.04
2023-03-28T20:15:01.014Z,3.03
2023-03-28T20:20:05.250Z,2.99
2023-03-28T20:25:09.263Z,2.94
2023-03-28T20:30:12.942Z,2.98
2023-03-28T20:35:16.583Z,3.03
2023-03-28T20:40:21.353Z,3.05
2023-03-28T20:45:25.799Z,3.09
2023-03-28T20:50:39.044Z,3.09
2023-03-28T20:55:43.685Z,3.05
2023-03-28T21:00:47.918Z,2.98
2023-03-28T21:05:51.568Z,2.96
2023-03-28T21:10:54.963Z,2.94
2023-03-28T21:15:58.335Z,2.91
2023-03-28T21:21:02.316Z,2.94
2023-03-28T21:26:08.218Z,2.96
2023-03-28T21:31:26.065Z,2.91
2023-03-28T21:36:30.677Z,2.93
2023-03-28T21:41:38.088Z,2.92
2023-03-28T21:46:41.771Z,2.92
2023-03-28T21:51:45.991Z,2.88
2023-03-28T21:56:52.242Z,2.86
2023-03-28T22:01:56.104Z,2.82
2023-03-28T22:06:59.624Z,2.80
2023-03-28T22:12:05.921Z,2.78
2023-03-28T22:17:10.140Z,2.79
2023-03-28T22:22:13.736Z,2.77
2023-03-28T22:27:18.211Z,2.73
2023-03-28T22:32:21.865Z,2.70
2023-03-28T22:38:10.187Z,2.74
2023-03-28T22:43:13.783Z,2.75
2023-03-28T22:48:17.497Z,2.73
2023-03-28T22:53:23.867Z,2.67
2023-03-28T22:58:27.778Z,2.67
2023-03-28T23:03:32.711Z,2.58
2023-03-28T23:08:36.201Z,2.53
2023-03-28T23:13:39.601Z,2.54
2023-03-28T23:18:43.442Z,2.48
2023-03-28T23:23:47.657Z,2.40
2023-03-28T23:28:51.000Z,2.38
2023-03-28T23:33:54.156Z,2.39
2023-03-28T23:38:57.809Z,2.43
2023-03-28T23:44:01.327Z,2.44
2023-03-28T23:49:04.733Z,2.36
2023-03-28T23:54:08.091Z,2.34
2023-03-28T23:59:12.065Z,2.33
